sensor_id;sensor_type;location;lat;lon;timestamp;P1;durP1;ratioP1;P2;durP2;ratioP2
9270;SDS011;4673;53.458;9.940;2023-08-30T00:00:39;0.40;;;0.40;;
9270;SDS011;4673;53.458;9.940;2023-08-30T00:03:05;0.32;;;0.32;;
9270;SDS011;4673;53.458;9.940;2023-08-30T00:05:32;0.30;;;0.30;;
9270;SDS011;4673;53.458;9.940;2023-08-30T00:07:57;0.30;;;0.30;;
9270;SDS011;4673;53.458;9.940;2023-08-30T00:10:23;0.50;;;0.50;;
9270;SDS011;4673;53.458;9.940;2023-08-30T00:12:49;0.30;;;0.30;;
9270;SDS011;4673;53.458;9.940;2023-08-30T00:15:15;0.30;;;0.30;;
9270;SDS011;4673;53.458;9.940;2023-08-30T00:17:40;0.40;;;0.40;;
9270;SDS011;4673;53.458;9.940;2023-08-30T00:20:06;0.32;;;0.32;;
9270;SDS011;4673;53.458;9.940;2023-08-30T00:22:34;0.20;;;0.20;;
9270;SDS011;4673;53.458;9.940;2023-08-30T00:25:00;0.40;;;0.40;;
9270;SDS011;4673;53.458;9.940;2023-08-30T00:27:26;0.50;;;0.50;;
9270;SDS011;4673;53.458;9.940;2023-08-30T00:29:52;0.27;;;0.27;;
9270;SDS011;4673;53.458;9.940;2023-08-30T00:32:17;0.30;;;0.30;;
9270;SDS011;4673;53.458;9.940;2023-08-30T00:34:43;0.50;;;0.50;;
9270;SDS011;4673;53.458;9.940;2023-08-30T00:37:09;0.30;;;0.30;;
9270;SDS011;4673;53.458;9.940;2023-08-30T00:39:38;0.30;;;0.30;;
9270;SDS011;4673;53.458;9.940;2023-08-30T00:42:04;0.30;;;0.30;;
9270;SDS011;4673;53.458;9.940;2023-08-30T00:44:32;0.40;;;0.40;;
9270;SDS011;4673;53.458;9.940;2023-08-30T00:46:58;0.30;;;0.30;;
9270;SDS011;4673;53.458;9.940;2023-08-30T00:49:25;0.30;;;0.30;;
9270;SDS011;4673;53.458;9.940;2023-08-30T00:51:50;0.30;;;0.30;;
9270;SDS011;4673;53.458;9.940;2023-08-30T00:54:17;0.40;;;0.40;;
9270;SDS011;4673;53.458;9.940;2023-08-30T00:56:43;0.38;;;0.38;;
9270;SDS011;4673;53.458;9.940;2023-08-30T00:59:09;0.40;;;0.40;;
9270;SDS011;4673;53.458;9.940;2023-08-30T01:01:35;0.30;;;0.30;;
9270;SDS011;4673;53.458;9.940;2023-08-30T01:04:04;0.30;;;0.30;;
9270;SDS011;4673;53.458;9.940;2023-08-30T01:06:29;0.30;;;0.30;;
9270;SDS011;4673;53.458;9.940;2023-08-30T01:08:55;0.20;;;0.20;;
9270;SDS011;4673;53.458;9.940;2023-08-30T01:11:40;0.30;;;0.30;;
9270;SDS011;4673;53.458;9.940;2023-08-30T01:14:17;0.20;;;0.20;;
9270;SDS011;4673;53.458;9.940;2023-08-30T01:16:47;0.20;;;0.20;;
9270;SDS011;4673;53.458;9.940;2023-08-30T01:19:22;0.43;;;0.43;;
9270;SDS011;4673;53.458;9.940;2023-08-30T01:24:58;0.30;;;0.30;;
9270;SDS011;4673;53.458;9.940;2023-08-30T01:27:31;0.70;;;0.70;;
9270;SDS011;4673;53.458;9.940;2023-08-30T01:30:00;0.30;;;0.30;;
9270;SDS011;4673;53.458;9.940;2023-08-30T01:32:27;0.50;;;0.50;;
9270;SDS011;4673;53.458;9.940;2023-08-30T01:34:55;0.50;;;0.50;;
9270;SDS011;4673;53.458;9.940;2023-08-30T01:37:22;0.30;;;0.30;;
9270;SDS011;4673;53.458;9.940;2023-08-30T01:39:48;0.37;;;0.37;;
9270;SDS011;4673;53.458;9.940;2023-08-30T01:42:15;0.40;;;0.40;;
9270;SDS011;4673;53.458;9.940;2023-08-30T01:44:42;0.40;;;0.40;;
9270;SDS011;4673;53.458;9.940;2023-08-30T01:47:09;0.37;;;0.37;;
9270;SDS011;4673;53.458;9.940;2023-08-30T01:49:36;0.30;;;0.30;;
9270;SDS011;4673;53.458;9.940;2023-08-30T01:52:04;0.40;;;0.40;;
9270;SDS011;4673;53.458;9.940;2023-08-30T01:54:31;0.30;;;0.30;;
9270;SDS011;4673;53.458;9.940;2023-08-30T01:56:57;0.30;;;0.30;;
9270;SDS011;4673;53.458;9.940;2023-08-30T01:59:24;0.30;;;0.30;;
9270;SDS011;4673;53.458;9.940;2023-08-30T02:01:50;0.40;;;0.40;;
9270;SDS011;4673;53.458;9.940;2023-08-30T02:04:16;0.33;;;0.33;;
9270;SDS011;4673;53.458;9.940;2023-08-30T02:06:43;0.40;;;0.40;;
9270;SDS011;4673;53.458;9.940;2023-08-30T02:09:19;0.40;;;0.40;;
9270;SDS011;4673;53.458;9.940;2023-08-30T02:11:51;0.40;;;0.40;;
9270;SDS011;4673;53.458;9.940;2023-08-30T02:14:19;0.57;;;0.57;;
9270;SDS011;4673;53.458;9.940;2023-08-30T02:16:46;0.43;;;0.43;;
9270;SDS011;4673;53.458;9.940;2023-08-30T02:19:13;0.40;;;0.40;;
9270;SDS011;4673;53.458;9.940;2023-08-30T02:21:42;0.60;;;0.60;;
9270;SDS011;4673;53.458;9.940;2023-08-30T02:24:08;0.60;;;0.60;;
9270;SDS011;4673;53.458;9.940;2023-08-30T02:26:34;0.33;;;0.33;;
9270;SDS011;4673;53.458;9.940;2023-08-30T02:29:00;0.77;;;0.77;;
9270;SDS011;4673;53.458;9.940;2023-08-30T02:31:25;0.80;;;0.80;;
9270;SDS011;4673;53.458;9.940;2023-08-30T02:33:51;0.37;;;0.37;;
9270;SDS011;4673;53.458;9.940;2023-08-30T02:36:17;0.43;;;0.43;;
9270;SDS011;4673;53.458;9.940;2023-08-30T02:38:42;0.30;;;0.30;;
9270;SDS011;4673;53.458;9.940;2023-08-30T02:41:08;0.53;;;0.53;;
9270;SDS011;4673;53.458;9.940;2023-08-30T02:43:35;0.50;;;0.50;;
9270;SDS011;4673;53.458;9.940;2023-08-30T02:46:01;0.63;;;0.63;;
9270;SDS011;4673;53.458;9.940;2023-08-30T02:48:28;0.40;;;0.40;;
9270;SDS011;4673;53.458;9.940;2023-08-30T02:50:54;0.50;;;0.50;;
9270;SDS011;4673;53.458;9.940;2023-08-30T02:53:20;0.77;;;0.77;;
9270;SDS011;4673;53.458;9.940;2023-08-30T02:55:46;0.60;;;0.60;;
9270;SDS011;4673;53.458;9.940;2023-08-30T02:58:13;0.60;;;0.60;;
9270;SDS011;4673;53.458;9.940;2023-08-30T03:00:38;0.47;;;0.47;;
9270;SDS011;4673;53.458;9.940;2023-08-30T03:03:04;0.50;;;0.50;;
9270;SDS011;4673;53.458;9.940;2023-08-30T03:05:30;0.50;;;0.50;;
9270;SDS011;4673;53.458;9.940;2023-08-30T03:07:55;0.40;;;0.40;;
9270;SDS011;4673;53.458;9.940;2023-08-30T03:10:21;0.50;;;0.50;;
9270;SDS011;4673;53.458;9.940;2023-08-30T03:12:47;0.80;;;0.80;;
9270;SDS011;4673;53.458;9.940;2023-08-30T03:15:13;0.60;;;0.60;;
9270;SDS011;4673;53.458;9.940;2023-08-30T03:17:38;0.53;;;0.53;;
9270;SDS011;4673;53.458;9.940;2023-08-30T03:20:04;0.60;;;0.60;;
9270;SDS011;4673;53.458;9.940;2023-08-30T03:22:30;0.80;;;0.80;;
9270;SDS011;4673;53.458;9.940;2023-08-30T03:24:56;0.50;;;0.50;;
9270;SDS011;4673;53.458;9.940;2023-08-30T03:27:22;0.73;;;0.73;;
9270;SDS011;4673;53.458;9.940;2023-08-30T03:29:48;0.60;;;0.60;;
9270;SDS011;4673;53.458;9.940;2023-08-30T03:32:15;0.50;;;0.50;;
9270;SDS011;4673;53.458;9.940;2023-08-30T03:34:45;0.40;;;0.40;;
9270;SDS011;4673;53.458;9.940;2023-08-30T03:37:12;0.50;;;0.50;;
9270;SDS011;4673;53.458;9.940;2023-08-30T03:39:41;0.60;;;0.60;;
9270;SDS011;4673;53.458;9.940;2023-08-30T03:42:07;0.40;;;0.40;;
9270;SDS011;4673;53.458;9.940;2023-08-30T03:44:33;0.70;;;0.70;;
9270;SDS011;4673;53.458;9.940;2023-08-30T03:46:59;0.40;;;0.40;;
9270;SDS011;4673;53.458;9.940;2023-08-30T03:49:24;0.43;;;0.43;;
9270;SDS011;4673;53.458;9.940;2023-08-30T03:51:50;0.40;;;0.40;;
9270;SDS011;4673;53.458;9.940;2023-08-30T03:54:15;0.40;;;0.40;;
9270;SDS011;4673;53.458;9.940;2023-08-30T03:56:45;0.50;;;0.50;;
9270;SDS011;4673;53.458;9.940;2023-08-30T03:59:11;0.70;;;0.70;;
9270;SDS011;4673;53.458;9.940;2023-08-30T04:01:37;0.50;;;0.50;;
9270;SDS011;4673;53.458;9.940;2023-08-30T04:04:02;0.60;;;0.60;;
9270;SDS011;4673;53.458;9.940;2023-08-30T04:06:28;0.90;;;0.90;;
9270;SDS011;4673;53.458;9.940;2023-08-30T04:08:54;0.63;;;0.63;;
9270;SDS011;4673;53.458;9.940;2023-08-30T04:11:20;0.50;;;0.50;;
9270;SDS011;4673;53.458;9.940;2023-08-30T04:13:45;0.43;;;0.43;;
9270;SDS011;4673;53.458;9.940;2023-08-30T04:16:11;0.50;;;0.50;;
9270;SDS011;4673;53.458;9.940;2023-08-30T04:18:37;0.50;;;0.50;;
9270;SDS011;4673;53.458;9.940;2023-08-30T04:21:02;0.57;;;0.57;;
9270;SDS011;4673;53.458;9.940;2023-08-30T04:23:29;0.60;;;0.60;;
9270;SDS011;4673;53.458;9.940;2023-08-30T04:25:55;0.50;;;0.50;;
9270;SDS011;4673;53.458;9.940;2023-08-30T04:28:20;0.60;;;0.60;;
9270;SDS011;4673;53.458;9.940;2023-08-30T04:30:46;0.40;;;0.40;;
9270;SDS011;4673;53.458;9.940;2023-08-30T04:33:13;0.60;;;0.60;;
9270;SDS011;4673;53.458;9.940;2023-08-30T04:35:38;0.40;;;0.40;;
9270;SDS011;4673;53.458;9.940;2023-08-30T04:38:04;0.47;;;0.47;;
9270;SDS011;4673;53.458;9.940;2023-08-30T04:40:31;0.57;;;0.57;;
9270;SDS011;4673;53.458;9.940;2023-08-30T04:42:58;0.50;;;0.50;;
9270;SDS011;4673;53.458;9.940;2023-08-30T04:45:24;0.75;;;0.75;;
9270;SDS011;4673;53.458;9.940;2023-08-30T04:47:50;0.82;;;0.82;;
9270;SDS011;4673;53.458;9.940;2023-08-30T04:50:15;0.80;;;0.80;;
9270;SDS011;4673;53.458;9.940;2023-08-30T04:52:42;0.63;;;0.63;;
9270;SDS011;4673;53.458;9.940;2023-08-30T04:55:08;0.68;;;0.68;;
9270;SDS011;4673;53.458;9.940;2023-08-30T04:57:34;0.60;;;0.60;;
9270;SDS011;4673;53.458;9.940;2023-08-30T04:59:59;1.02;;;1.02;;
9270;SDS011;4673;53.458;9.940;2023-08-30T05:02:29;0.50;;;0.50;;
9270;SDS011;4673;53.458;9.940;2023-08-30T05:04:55;0.55;;;0.55;;
9270;SDS011;4673;53.458;9.940;2023-08-30T05:07:20;0.50;;;0.50;;
9270;SDS011;4673;53.458;9.940;2023-08-30T05:09:46;0.77;;;0.77;;
9270;SDS011;4673;53.458;9.940;2023-08-30T05:12:12;0.77;;;0.77;;
9270;SDS011;4673;53.458;9.940;2023-08-30T05:14:37;0.70;;;0.70;;
9270;SDS011;4673;53.458;9.940;2023-08-30T05:17:03;0.63;;;0.63;;
9270;SDS011;4673;53.458;9.940;2023-08-30T05:19:29;0.75;;;0.75;;
9270;SDS011;4673;53.458;9.940;2023-08-30T05:21:54;0.63;;;0.63;;
9270;SDS011;4673;53.458;9.940;2023-08-30T05:24:20;0.55;;;0.55;;
9270;SDS011;4673;53.458;9.940;2023-08-30T05:26:46;0.70;;;0.70;;
9270;SDS011;4673;53.458;9.940;2023-08-30T05:29:14;0.60;;;0.60;;
9270;SDS011;4673;53.458;9.940;2023-08-30T05:31:40;0.65;;;0.65;;
9270;SDS011;4673;53.458;9.940;2023-08-30T05:34:06;0.35;;;0.35;;
9270;SDS011;4673;53.458;9.940;2023-08-30T05:36:32;0.63;;;0.63;;
9270;SDS011;4673;53.458;9.940;2023-08-30T05:38:57;1.02;;;1.02;;
9270;SDS011;4673;53.458;9.940;2023-08-30T05:41:23;0.63;;;0.63;;
9270;SDS011;4673;53.458;9.940;2023-08-30T05:43:48;0.70;;;0.70;;
9270;SDS011;4673;53.458;9.940;2023-08-30T05:46:14;0.65;;;0.65;;
9270;SDS011;4673;53.458;9.940;2023-08-30T05:48:40;1.08;;;1.08;;
9270;SDS011;4673;53.458;9.940;2023-08-30T05:51:06;0.65;;;0.65;;
9270;SDS011;4673;53.458;9.940;2023-08-30T05:53:32;0.88;;;0.88;;
9270;SDS011;4673;53.458;9.940;2023-08-30T05:55:57;0.55;;;0.55;;
9270;SDS011;4673;53.458;9.940;2023-08-30T05:58:23;0.60;;;0.60;;
9270;SDS011;4673;53.458;9.940;2023-08-30T06:00:49;0.65;;;0.65;;
9270;SDS011;4673;53.458;9.940;2023-08-30T06:03:14;1.15;;;1.15;;
9270;SDS011;4673;53.458;9.940;2023-08-30T06:05:40;0.75;;;0.75;;
9270;SDS011;4673;53.458;9.940;2023-08-30T06:08:07;0.90;;;0.90;;
9270;SDS011;4673;53.458;9.940;2023-08-30T06:10:33;1.25;;;1.25;;
9270;SDS011;4673;53.458;9.940;2023-08-30T06:13:00;1.23;;;1.23;;
9270;SDS011;4673;53.458;9.940;2023-08-30T06:15:25;0.88;;;0.88;;
9270;SDS011;4673;53.458;9.940;2023-08-30T06:17:51;0.75;;;0.75;;
9270;SDS011;4673;53.458;9.940;2023-08-30T06:20:17;1.17;;;1.17;;
9270;SDS011;4673;53.458;9.940;2023-08-30T06:22:42;1.13;;;1.13;;
9270;SDS011;4673;53.458;9.940;2023-08-30T06:25:09;0.77;;;0.77;;
9270;SDS011;4673;53.458;9.940;2023-08-30T06:27:41;0.88;;;0.88;;
9270;SDS011;4673;53.458;9.940;2023-08-30T06:30:08;0.90;;;0.90;;
9270;SDS011;4673;53.458;9.940;2023-08-30T06:32:35;0.93;;;0.93;;
9270;SDS011;4673;53.458;9.940;2023-08-30T06:35:01;1.50;;;1.50;;
9270;SDS011;4673;53.458;9.940;2023-08-30T06:37:27;1.20;;;1.20;;
9270;SDS011;4673;53.458;9.940;2023-08-30T06:39:53;1.33;;;1.33;;
9270;SDS011;4673;53.458;9.940;2023-08-30T06:42:18;1.52;;;1.52;;
9270;SDS011;4673;53.458;9.940;2023-08-30T06:44:44;1.30;;;1.30;;
9270;SDS011;4673;53.458;9.940;2023-08-30T06:47:10;0.98;;;0.98;;
9270;SDS011;4673;53.458;9.940;2023-08-30T06:49:35;1.67;;;1.67;;
9270;SDS011;4673;53.458;9.940;2023-08-30T06:52:01;0.85;;;0.85;;
9270;SDS011;4673;53.458;9.940;2023-08-30T06:54:28;1.30;;;1.30;;
9270;SDS011;4673;53.458;9.940;2023-08-30T06:56:59;1.33;;;1.33;;
9270;SDS011;4673;53.458;9.940;2023-08-30T06:59:25;1.05;;;1.05;;
9270;SDS011;4673;53.458;9.940;2023-08-30T07:01:55;1.10;;;1.10;;
9270;SDS011;4673;53.458;9.940;2023-08-30T07:04:20;0.90;;;0.90;;
9270;SDS011;4673;53.458;9.940;2023-08-30T07:06:46;1.13;;;1.13;;
9270;SDS011;4673;53.458;9.940;2023-08-30T07:09:12;1.10;;;1.10;;
9270;SDS011;4673;53.458;9.940;2023-08-30T07:11:37;1.42;;;1.42;;
9270;SDS011;4673;53.458;9.940;2023-08-30T07:14:03;0.80;;;0.80;;
9270;SDS011;4673;53.458;9.940;2023-08-30T07:16:29;0.77;;;0.77;;
9270;SDS011;4673;53.458;9.940;2023-08-30T07:18:57;0.85;;;0.85;;
9270;SDS011;4673;53.458;9.940;2023-08-30T07:21:23;1.25;;;1.25;;
9270;SDS011;4673;53.458;9.940;2023-08-30T07:23:48;1.00;;;1.00;;
9270;SDS011;4673;53.458;9.940;2023-08-30T07:26:14;1.08;;;1.08;;
9270;SDS011;4673;53.458;9.940;2023-08-30T07:28:40;1.10;;;1.10;;
9270;SDS011;4673;53.458;9.940;2023-08-30T07:31:05;1.02;;;1.02;;
9270;SDS011;4673;53.458;9.940;2023-08-30T07:33:31;1.13;;;1.13;;
9270;SDS011;4673;53.458;9.940;2023-08-30T07:35:58;1.30;;;1.30;;
9270;SDS011;4673;53.458;9.940;2023-08-30T07:38:24;1.02;;;1.02;;
9270;SDS011;4673;53.458;9.940;2023-08-30T07:40:49;1.20;;;1.20;;
9270;SDS011;4673;53.458;9.940;2023-08-30T07:43:15;1.10;;;1.10;;
9270;SDS011;4673;53.458;9.940;2023-08-30T07:45:41;1.35;;;1.35;;
9270;SDS011;4673;53.458;9.940;2023-08-30T07:48:06;1.00;;;1.00;;
9270;SDS011;4673;53.458;9.940;2023-08-30T07:50:32;1.45;;;1.45;;
9270;SDS011;4673;53.458;9.940;2023-08-30T07:52:57;1.23;;;1.23;;
9270;SDS011;4673;53.458;9.940;2023-08-30T07:55:23;1.63;;;1.63;;
9270;SDS011;4673;53.458;9.940;2023-08-30T07:57:49;1.65;;;1.65;;
9270;SDS011;4673;53.458;9.940;2023-08-30T08:00:15;1.25;;;1.25;;
9270;SDS011;4673;53.458;9.940;2023-08-30T08:02:40;1.25;;;1.25;;
9270;SDS011;4673;53.458;9.940;2023-08-30T08:05:06;1.40;;;1.40;;
9270;SDS011;4673;53.458;9.940;2023-08-30T08:07:32;0.90;;;0.90;;
9270;SDS011;4673;53.458;9.940;2023-08-30T08:09:58;1.10;;;1.10;;
9270;SDS011;4673;53.458;9.940;2023-08-30T08:12:25;0.90;;;0.90;;
9270;SDS011;4673;53.458;9.940;2023-08-30T08:14:51;1.15;;;1.15;;
9270;SDS011;4673;53.458;9.940;2023-08-30T08:17:17;1.00;;;1.00;;
9270;SDS011;4673;53.458;9.940;2023-08-30T08:19:42;0.82;;;0.82;;
9270;SDS011;4673;53.458;9.940;2023-08-30T08:22:09;1.02;;;1.02;;
9270;SDS011;4673;53.458;9.940;2023-08-30T08:24:36;1.08;;;1.08;;
9270;SDS011;4673;53.458;9.940;2023-08-30T08:27:02;0.88;;;0.88;;
9270;SDS011;4673;53.458;9.940;2023-08-30T08:29:28;0.98;;;0.98;;
9270;SDS011;4673;53.458;9.940;2023-08-30T08:31:54;1.00;;;1.00;;
9270;SDS011;4673;53.458;9.940;2023-08-30T08:34:19;1.10;;;1.10;;
9270;SDS011;4673;53.458;9.940;2023-08-30T08:36:45;0.88;;;0.88;;
9270;SDS011;4673;53.458;9.940;2023-08-30T08:39:11;0.90;;;0.90;;
9270;SDS011;4673;53.458;9.940;2023-08-30T08:41:40;0.98;;;0.98;;
9270;SDS011;4673;53.458;9.940;2023-08-30T08:44:10;1.00;;;1.00;;
9270;SDS011;4673;53.458;9.940;2023-08-30T08:46:37;1.08;;;1.08;;
9270;SDS011;4673;53.458;9.940;2023-08-30T08:49:24;1.38;;;1.38;;
9270;SDS011;4673;53.458;9.940;2023-08-30T08:51:53;1.30;;;1.30;;
9270;SDS011;4673;53.458;9.940;2023-08-30T08:54:19;0.93;;;0.93;;
9270;SDS011;4673;53.458;9.940;2023-08-30T08:56:45;1.13;;;1.13;;
9270;SDS011;4673;53.458;9.940;2023-08-30T08:59:11;0.90;;;0.90;;
9270;SDS011;4673;53.458;9.940;2023-08-30T09:01:38;1.13;;;1.13;;
9270;SDS011;4673;53.458;9.940;2023-08-30T09:04:10;0.85;;;0.85;;
9270;SDS011;4673;53.458;9.940;2023-08-30T09:06:37;1.20;;;1.20;;
9270;SDS011;4673;53.458;9.940;2023-08-30T09:09:04;1.02;;;1.02;;
9270;SDS011;4673;53.458;9.940;2023-08-30T09:11:31;0.90;;;0.90;;
9270;SDS011;4673;53.458;9.940;2023-08-30T09:13:57;1.20;;;1.20;;
9270;SDS011;4673;53.458;9.940;2023-08-30T09:16:23;1.13;;;1.13;;
9270;SDS011;4673;53.458;9.940;2023-08-30T09:18:58;0.70;;;0.70;;
9270;SDS011;4673;53.458;9.940;2023-08-30T09:21:24;1.17;;;1.17;;
9270;SDS011;4673;53.458;9.940;2023-08-30T09:23:57;0.82;;;0.82;;
9270;SDS011;4673;53.458;9.940;2023-08-30T09:26:26;0.75;;;0.75;;
9270;SDS011;4673;53.458;9.940;2023-08-30T09:29:00;0.63;;;0.63;;
9270;SDS011;4673;53.458;9.940;2023-08-30T09:31:36;0.80;;;0.80;;
9270;SDS011;4673;53.458;9.940;2023-08-30T09:34:03;1.10;;;1.10;;
9270;SDS011;4673;53.458;9.940;2023-08-30T09:36:33;0.63;;;0.63;;
9270;SDS011;4673;53.458;9.940;2023-08-30T09:38:59;0.57;;;0.57;;
9270;SDS011;4673;53.458;9.940;2023-08-30T09:41:27;0.70;;;0.70;;
9270;SDS011;4673;53.458;9.940;2023-08-30T09:43:53;0.63;;;0.63;;
9270;SDS011;4673;53.458;9.940;2023-08-30T09:46:19;0.70;;;0.70;;
9270;SDS011;4673;53.458;9.940;2023-08-30T09:48:45;0.80;;;0.80;;
9270;SDS011;4673;53.458;9.940;2023-08-30T09:51:10;0.85;;;0.85;;
9270;SDS011;4673;53.458;9.940;2023-08-30T09:53:41;0.80;;;0.80;;
9270;SDS011;4673;53.458;9.940;2023-08-30T09:56:10;0.85;;;0.85;;
9270;SDS011;4673;53.458;9.940;2023-08-30T09:58:38;0.43;;;0.43;;
9270;SDS011;4673;53.458;9.940;2023-08-30T10:01:05;0.70;;;0.70;;
9270;SDS011;4673;53.458;9.940;2023-08-30T10:03:32;0.82;;;0.82;;
9270;SDS011;4673;53.458;9.940;2023-08-30T10:05:59;0.70;;;0.70;;
9270;SDS011;4673;53.458;9.940;2023-08-30T10:08:28;1.00;;;1.00;;
9270;SDS011;4673;53.458;9.940;2023-08-30T10:10:57;0.70;;;0.70;;
9270;SDS011;4673;53.458;9.940;2023-08-30T10:13:23;0.68;;;0.68;;
9270;SDS011;4673;53.458;9.940;2023-08-30T10:15:50;0.60;;;0.60;;
9270;SDS011;4673;53.458;9.940;2023-08-30T10:18:22;0.85;;;0.85;;
9270;SDS011;4673;53.458;9.940;2023-08-30T10:20:53;1.17;;;1.17;;
9270;SDS011;4673;53.458;9.940;2023-08-30T10:23:20;1.13;;;1.13;;
9270;SDS011;4673;53.458;9.940;2023-08-30T10:25:48;0.75;;;0.75;;
9270;SDS011;4673;53.458;9.940;2023-08-30T10:28:15;0.82;;;0.82;;
9270;SDS011;4673;53.458;9.940;2023-08-30T10:30:42;0.60;;;0.60;;
9270;SDS011;4673;53.458;9.940;2023-08-30T10:33:12;0.77;;;0.77;;
9270;SDS011;4673;53.458;9.940;2023-08-30T10:35:46;0.80;;;0.80;;
9270;SDS011;4673;53.458;9.940;2023-08-30T10:38:23;0.82;;;0.82;;
9270;SDS011;4673;53.458;9.940;2023-08-30T10:40:51;0.50;;;0.50;;
9270;SDS011;4673;53.458;9.940;2023-08-30T10:43:27;0.50;;;0.50;;
9270;SDS011;4673;53.458;9.940;2023-08-30T10:45:59;0.52;;;0.52;;
9270;SDS011;4673;53.458;9.940;2023-08-30T10:48:37;0.93;;;0.93;;
9270;SDS011;4673;53.458;9.940;2023-08-30T10:51:20;0.90;;;0.90;;
9270;SDS011;4673;53.458;9.940;2023-08-30T10:53:56;0.77;;;0.77;;
9270;SDS011;4673;53.458;9.940;2023-08-30T10:56:27;0.98;;;0.98;;
9270;SDS011;4673;53.458;9.940;2023-08-30T10:58:54;0.75;;;0.75;;
9270;SDS011;4673;53.458;9.940;2023-08-30T11:01:19;0.80;;;0.80;;
9270;SDS011;4673;53.458;9.940;2023-08-30T11:03:45;0.88;;;0.88;;
9270;SDS011;4673;53.458;9.940;2023-08-30T11:06:14;1.02;;;1.02;;
9270;SDS011;4673;53.458;9.940;2023-08-30T11:08:42;0.80;;;0.80;;
9270;SDS011;4673;53.458;9.940;2023-08-30T11:11:08;0.80;;;0.80;;
9270;SDS011;4673;53.458;9.940;2023-08-30T11:13:36;0.90;;;0.90;;
9270;SDS011;4673;53.458;9.940;2023-08-30T11:16:02;0.98;;;0.98;;
9270;SDS011;4673;53.458;9.940;2023-08-30T11:18:30;1.23;;;1.23;;
9270;SDS011;4673;53.458;9.940;2023-08-30T11:21:01;1.05;;;1.05;;
9270;SDS011;4673;53.458;9.940;2023-08-30T11:23:28;0.80;;;0.80;;
9270;SDS011;4673;53.458;9.940;2023-08-30T11:25:54;0.85;;;0.85;;
9270;SDS011;4673;53.458;9.940;2023-08-30T11:28:23;1.00;;;1.00;;
9270;SDS011;4673;53.458;9.940;2023-08-30T11:30:49;0.77;;;0.77;;
9270;SDS011;4673;53.458;9.940;2023-08-30T11:33:17;0.90;;;0.90;;
9270;SDS011;4673;53.458;9.940;2023-08-30T11:35:44;0.85;;;0.85;;
9270;SDS011;4673;53.458;9.940;2023-08-30T11:38:10;0.90;;;0.90;;
9270;SDS011;4673;53.458;9.940;2023-08-30T11:40:35;0.90;;;0.90;;
9270;SDS011;4673;53.458;9.940;2023-08-30T11:43:02;0.80;;;0.80;;
9270;SDS011;4673;53.458;9.940;2023-08-30T11:45:28;1.05;;;1.05;;
9270;SDS011;4673;53.458;9.940;2023-08-30T11:47:58;0.80;;;0.80;;
9270;SDS011;4673;53.458;9.940;2023-08-30T11:50:24;0.93;;;0.93;;
9270;SDS011;4673;53.458;9.940;2023-08-30T11:52:51;1.00;;;1.00;;
9270;SDS011;4673;53.458;9.940;2023-08-30T11:55:17;0.80;;;0.80;;
9270;SDS011;4673;53.458;9.940;2023-08-30T11:57:44;0.80;;;0.80;;
9270;SDS011;4673;53.458;9.940;2023-08-30T12:00:10;0.93;;;0.93;;
9270;SDS011;4673;53.458;9.940;2023-08-30T12:02:37;0.77;;;0.77;;
9270;SDS011;4673;53.458;9.940;2023-08-30T12:05:03;0.85;;;0.85;;
9270;SDS011;4673;53.458;9.940;2023-08-30T12:07:29;0.75;;;0.75;;
9270;SDS011;4673;53.458;9.940;2023-08-30T12:10:08;1.00;;;1.00;;
9270;SDS011;4673;53.458;9.940;2023-08-30T12:12:38;0.80;;;0.80;;
9270;SDS011;4673;53.458;9.940;2023-08-30T12:15:10;0.90;;;0.90;;
9270;SDS011;4673;53.458;9.940;2023-08-30T12:17:35;0.60;;;0.60;;
9270;SDS011;4673;53.458;9.940;2023-08-30T12:20:02;0.80;;;0.80;;
9270;SDS011;4673;53.458;9.940;2023-08-30T12:22:49;1.10;;;1.10;;
9270;SDS011;4673;53.458;9.940;2023-08-30T12:25:19;0.88;;;0.88;;
9270;SDS011;4673;53.458;9.940;2023-08-30T12:27:46;1.05;;;1.05;;
9270;SDS011;4673;53.458;9.940;2023-08-30T12:30:12;0.85;;;0.85;;
9270;SDS011;4673;53.458;9.940;2023-08-30T12:32:39;1.13;;;1.13;;
9270;SDS011;4673;53.458;9.940;2023-08-30T12:35:05;0.80;;;0.80;;
9270;SDS011;4673;53.458;9.940;2023-08-30T12:37:31;0.90;;;0.90;;
9270;SDS011;4673;53.458;9.940;2023-08-30T12:39:56;1.10;;;1.10;;
9270;SDS011;4673;53.458;9.940;2023-08-30T12:42:22;0.52;;;0.52;;
9270;SDS011;4673;53.458;9.940;2023-08-30T12:44:48;0.60;;;0.60;;
9270;SDS011;4673;53.458;9.940;2023-08-30T12:47:13;0.70;;;0.70;;
9270;SDS011;4673;53.458;9.940;2023-08-30T12:49:39;0.80;;;0.80;;
9270;SDS011;4673;53.458;9.940;2023-08-30T12:52:05;0.77;;;0.77;;
9270;SDS011;4673;53.458;9.940;2023-08-30T12:54:31;0.68;;;0.68;;
9270;SDS011;4673;53.458;9.940;2023-08-30T12:56:57;0.63;;;0.63;;
9270;SDS011;4673;53.458;9.940;2023-08-30T12:59:22;0.68;;;0.68;;
9270;SDS011;4673;53.458;9.940;2023-08-30T13:01:48;0.90;;;0.90;;
9270;SDS011;4673;53.458;9.940;2023-08-30T13:04:13;0.80;;;0.80;;
9270;SDS011;4673;53.458;9.940;2023-08-30T13:06:39;0.50;;;0.50;;
9270;SDS011;4673;53.458;9.940;2023-08-30T13:09:06;0.80;;;0.80;;
9270;SDS011;4673;53.458;9.940;2023-08-30T13:11:31;0.70;;;0.70;;
9270;SDS011;4673;53.458;9.940;2023-08-30T13:13:57;0.50;;;0.50;;
9270;SDS011;4673;53.458;9.940;2023-08-30T13:16:24;0.70;;;0.70;;
9270;SDS011;4673;53.458;9.940;2023-08-30T13:18:49;0.70;;;0.70;;
9270;SDS011;4673;53.458;9.940;2023-08-30T13:21:15;0.73;;;0.73;;
9270;SDS011;4673;53.458;9.940;2023-08-30T13:23:41;0.60;;;0.60;;
9270;SDS011;4673;53.458;9.940;2023-08-30T13:26:06;0.65;;;0.65;;
9270;SDS011;4673;53.458;9.940;2023-08-30T13:28:32;0.80;;;0.80;;
9270;SDS011;4673;53.458;9.940;2023-08-30T13:30:59;0.80;;;0.80;;
9270;SDS011;4673;53.458;9.940;2023-08-30T13:33:25;0.70;;;0.70;;
9270;SDS011;4673;53.458;9.940;2023-08-30T13:35:52;0.98;;;0.98;;
9270;SDS011;4673;53.458;9.940;2023-08-30T13:38:18;0.80;;;0.80;;
9270;SDS011;4673;53.458;9.940;2023-08-30T13:40:45;0.98;;;0.98;;
9270;SDS011;4673;53.458;9.940;2023-08-30T13:43:10;0.80;;;0.80;;
9270;SDS011;4673;53.458;9.940;2023-08-30T13:45:36;0.77;;;0.77;;
9270;SDS011;4673;53.458;9.940;2023-08-30T13:48:02;0.77;;;0.77;;
9270;SDS011;4673;53.458;9.940;2023-08-30T13:50:28;0.65;;;0.65;;
9270;SDS011;4673;53.458;9.940;2023-08-30T13:52:56;0.50;;;0.50;;
9270;SDS011;4673;53.458;9.940;2023-08-30T13:55:22;0.88;;;0.88;;
9270;SDS011;4673;53.458;9.940;2023-08-30T13:57:48;0.73;;;0.73;;
9270;SDS011;4673;53.458;9.940;2023-08-30T14:00:14;0.73;;;0.73;;
9270;SDS011;4673;53.458;9.940;2023-08-30T14:02:40;0.70;;;0.70;;
9270;SDS011;4673;53.458;9.940;2023-08-30T14:05:06;0.80;;;0.80;;
9270;SDS011;4673;53.458;9.940;2023-08-30T14:07:32;0.77;;;0.77;;
9270;SDS011;4673;53.458;9.940;2023-08-30T14:09:58;1.10;;;1.10;;
9270;SDS011;4673;53.458;9.940;2023-08-30T14:12:23;0.77;;;0.77;;
9270;SDS011;4673;53.458;9.940;2023-08-30T14:14:49;0.98;;;0.98;;
9270;SDS011;4673;53.458;9.940;2023-08-30T14:17:15;0.82;;;0.82;;
9270;SDS011;4673;53.458;9.940;2023-08-30T14:19:41;0.68;;;0.68;;
9270;SDS011;4673;53.458;9.940;2023-08-30T14:22:06;1.13;;;1.13;;
9270;SDS011;4673;53.458;9.940;2023-08-30T14:24:32;0.90;;;0.90;;
9270;SDS011;4673;53.458;9.940;2023-08-30T14:26:59;0.77;;;0.77;;
9270;SDS011;4673;53.458;9.940;2023-08-30T14:29:25;0.60;;;0.60;;
9270;SDS011;4673;53.458;9.940;2023-08-30T14:31:51;0.63;;;0.63;;
9270;SDS011;4673;53.458;9.940;2023-08-30T14:34:17;0.57;;;0.57;;
9270;SDS011;4673;53.458;9.940;2023-08-30T14:36:42;0.75;;;0.75;;
9270;SDS011;4673;53.458;9.940;2023-08-30T14:39:09;0.75;;;0.75;;
9270;SDS011;4673;53.458;9.940;2023-08-30T14:41:35;0.57;;;0.57;;
9270;SDS011;4673;53.458;9.940;2023-08-30T14:44:03;0.63;;;0.63;;
9270;SDS011;4673;53.458;9.940;2023-08-30T14:46:29;0.70;;;0.70;;
9270;SDS011;4673;53.458;9.940;2023-08-30T14:48:55;0.73;;;0.73;;
9270;SDS011;4673;53.458;9.940;2023-08-30T14:51:20;0.73;;;0.73;;
9270;SDS011;4673;53.458;9.940;2023-08-30T14:53:46;0.57;;;0.57;;
9270;SDS011;4673;53.458;9.940;2023-08-30T14:56:12;0.80;;;0.80;;
9270;SDS011;4673;53.458;9.940;2023-08-30T14:58:37;0.60;;;0.60;;
9270;SDS011;4673;53.458;9.940;2023-08-30T15:01:04;0.80;;;0.80;;
9270;SDS011;4673;53.458;9.940;2023-08-30T15:03:30;0.57;;;0.57;;
9270;SDS011;4673;53.458;9.940;2023-08-30T15:05:56;0.52;;;0.52;;
9270;SDS011;4673;53.458;9.940;2023-08-30T15:08:22;0.60;;;0.60;;
9270;SDS011;4673;53.458;9.940;2023-08-30T15:10:48;0.60;;;0.60;;
9270;SDS011;4673;53.458;9.940;2023-08-30T15:13:16;0.68;;;0.68;;
9270;SDS011;4673;53.458;9.940;2023-08-30T15:15:42;0.60;;;0.60;;